Time;durP1;ratioP1;P1;durP2;ratioP2;P2;SDS_P1;SDS_P2;PMS_P1;PMS_P2;Temp;Humidity;BMP_temperature;BMP_pressure;BME280_temperature;BME280_humidity;BME280_pressure;Samples;Min_cycle;Max_cycle;Signal;HPM_P1;HPM_P2
2023/12/04 00:01:00;;;;;;;2.00;1.90;;;;;;;19.48;36.40;101487.41;5029813;28;20097;-71
2023/12/04 00:03:25;;;;;;;1.80;1.70;;;;;;;19.52;36.40;101483.44;5078898;28;20503;-71
2023/12/04 00:05:51;;;;;;;2.25;2.05;;;;;;;19.44;36.31;101473.69;5037214;28;20028;-71
2023/12/04 00:08:16;;;;;;;2.75;2.30;;;;;;;19.45;36.63;101474.50;5063876;28;20086;-70
2023/12/04 00:10:42;;;;;;;2.30;2.10;;;;;;;19.49;36.42;101481.13;4995271;28;20066;-71
2023/12/04 00:13:07;;;;;;;2.10;2.00;;;;;;;19.48;36.29;101472.38;5082919;28;20440;-70
2023/12/04 00:15:33;;;;;;;2.10;1.83;;;;;;;19.48;36.25;101467.09;5011400;28;20032;-71
2023/12/04 00:17:58;;;;;;;2.40;2.20;;;;;;;19.48;36.29;101458.34;5087598;28;20438;-71
2023/12/04 00:20:24;;;;;;;2.40;2.20;;;;;;;19.48;36.45;101458.34;5023453;28;20048;-71
2023/12/04 00:22:50;;;;;;;2.25;2.05;;;;;;;19.48;36.33;101451.25;5082901;28;20035;-70
2023/12/04 00:25:15;;;;;;;2.25;2.05;;;;;;;19.46;36.41;101450.59;5029396;28;20036;-71
2023/12/04 00:27:40;;;;;;;2.40;2.20;;;;;;;19.43;36.42;101436.88;5084790;28;20111;-71
2023/12/04 00:30:06;;;;;;;2.30;2.10;;;;;;;19.46;36.41;101441.84;5029462;28;20039;-71
2023/12/04 00:32:32;;;;;;;2.17;2.03;;;;;;;19.45;36.35;101437.53;5082898;28;20119;-71
2023/12/04 00:34:57;;;;;;;2.20;2.03;;;;;;;19.45;36.36;101435.72;5028613;28;20059;-72
2023/12/04 00:37:23;;;;;;;1.98;1.88;;;;;;;19.43;36.50;101428.97;5067295;28;20040;-71
2023/12/04 00:39:49;;;;;;;2.05;1.95;;;;;;;19.36;36.49;101417.38;5084640;28;20052;-71
2023/12/04 00:42:14;;;;;;;2.22;2.03;;;;;;;19.42;36.47;101425.50;5088831;28;20048;-71
2023/12/04 00:44:39;;;;;;;2.20;2.00;;;;;;;19.42;36.43;101429.94;5037249;28;21077;-71
2023/12/04 00:47:05;;;;;;;2.05;1.95;;;;;;;19.39;36.40;101425.81;5085451;28;20042;-71
2023/12/04 00:49:31;;;;;;;2.17;2.00;;;;;;;19.42;36.47;101432.59;5007810;28;20632;-71
2023/12/04 00:51:56;;;;;;;2.00;1.83;;;;;;;19.35;36.40;101413.91;5080416;28;20032;-71
2023/12/04 00:54:22;;;;;;;2.20;2.03;;;;;;;19.36;36.48;101412.09;4993052;28;20114;-71
2023/12/04 00:56:47;;;;;;;2.22;2.03;;;;;;;19.39;36.47;101417.03;5083692;28;20150;-71
2023/12/04 00:59:13;;;;;;;2.38;2.17;;;;;;;19.33;36.33;101402.69;5026952;28;20035;-71
2023/12/04 01:01:38;;;;;;;2.20;2.00;;;;;;;19.32;36.43;101401.84;5055604;28;20065;-71
2023/12/04 01:04:04;;;;;;;2.30;2.10;;;;;;;19.35;36.49;101399.88;5023179;28;20032;-71
2023/12/04 01:06:30;;;;;;;2.20;1.98;;;;;;;19.38;36.46;101412.75;5077662;28;20130;-71
2023/12/04 01:08:56;;;;;;;2.25;2.05;;;;;;;19.37;36.49;101411.09;5024468;28;20044;-71
2023/12/04 01:11:22;;;;;;;1.80;1.70;;;;;;;19.35;36.51;101398.06;5077680;28;20035;-70
2023/12/04 01:13:50;;;;;;;2.30;2.10;;;;;;;19.36;36.43;101397.06;5027882;28;20372;-71
2023/12/04 01:16:17;;;;;;;2.20;2.08;;;;;;;19.30;36.52;101390.63;5060601;28;20036;-71
2023/12/04 01:18:43;;;;;;;2.30;2.10;;;;;;;19.30;36.35;101388.00;5010673;28;20462;-71
2023/12/04 01:21:09;;;;;;;1.90;1.80;;;;;;;19.31;36.46;101379.06;5078146;28;20040;-71
2023/12/04 01:23:37;;;;;;;2.10;2.00;;;;;;;19.43;36.38;101392.81;5024596;28;20108;-71
2023/12/04 01:26:04;;;;;;;2.00;1.90;;;;;;;19.42;36.28;101391.16;5090786;28;20039;-71
2023/12/04 01:28:29;;;;;;;2.20;2.10;;;;;;;19.37;36.48;101390.78;5033074;28;20574;-71
2023/12/04 01:30:55;;;;;;;2.25;2.05;;;;;;;19.40;36.31;101387.03;5084051;28;20474;-71
2023/12/04 01:33:20;;;;;;;2.53;2.28;;;;;;;19.40;36.26;101387.03;5034424;28;20440;-71
2023/12/04 01:35:47;;;;;;;1.90;1.80;;;;;;;19.40;36.28;101387.03;5079930;28;20068;-71
2023/12/04 01:38:13;;;;;;;2.10;1.90;;;;;;;19.39;36.37;101382.72;5029835;28;20058;-71
2023/12/04 01:40:38;;;;;;;2.45;2.10;;;;;;;19.32;36.57;101378.09;5080206;28;20036;-71
2023/12/04 01:43:04;;;;;;;1.92;1.83;;;;;;;19.37;36.40;101382.03;5012452;28;20046;-71
2023/12/04 01:45:29;;;;;;;2.22;2.03;;;;;;;19.38;36.46;101383.69;5084657;28;20533;-71
2023/12/04 01:47:55;;;;;;;1.92;1.83;;;;;;;19.31;36.53;101370.31;5061877;28;20040;-72
2023/12/04 01:50:21;;;;;;;2.20;2.00;;;;;;;19.38;36.37;101383.69;5068362;28;20066;-71
2023/12/04 01:52:47;;;;;;;2.47;2.28;;;;;;;19.36;36.47;101377.75;5026855;28;20523;-71
2023/12/04 01:55:14;;;;;;;1.80;1.70;;;;;;;19.35;36.31;101374.28;5061716;28;20064;-71
2023/12/04 01:57:40;;;;;;;2.30;2.10;;;;;;;19.35;36.34;101370.81;5024497;28;20302;-71
2023/12/04 02:00:11;;;;;;;2.30;2.10;;;;;;;19.30;36.35;101358.94;5084835;28;20044;-71
2023/12/04 02:02:40;;;;;;;1.83;1.73;;;;;;;19.32;36.54;101361.41;5018052;28;20043;-71
2023/12/04 02:05:07;;;;;;;2.15;2.05;;;;;;;19.28;36.31;101353.00;5081119;28;20040;-71
2023/12/04 02:07:34;;;;;;;2.05;1.85;;;;;;;19.17;36.37;101331.34;5027353;28;20109;-71
2023/12/04 02:09:59;;;;;;;2.33;2.13;;;;;;;19.32;36.43;101351.69;5076714;28;20107;-71
2023/12/04 02:12:25;;;;;;;1.90;1.80;;;;;;;19.31;36.41;101354.47;5031518;28;20031;-71
2023/12/04 02:14:52;;;;;;;2.20;2.00;;;;;;;19.18;36.33;101331.19;5079452;28;20541;-71
2023/12/04 02:17:19;;;;;;;1.90;1.80;;;;;;;19.31;36.38;101343.91;5023426;28;20475;-71
2023/12/04 02:19:45;;;;;;;2.22;2.03;;;;;;;19.28;36.42;101341.63;5087067;28;20139;-71
2023/12/04 02:22:11;;;;;;;2.15;1.92;;;;;;;19.30;36.36;101343.09;5007610;28;20639;-71
2023/12/04 02:24:36;;;;;;;1.95;1.85;;;;;;;19.20;36.64;101334.50;5099250;28;20057;-71
2023/12/04 02:27:25;;;;;;;2.08;1.90;;;;;;;19.28;36.29;101333.69;5014589;28;20036;-71
2023/12/04 02:29:58;;;;;;;2.15;2.05;;;;;;;19.24;36.44;101329.72;5079895;28;20042;-71
2023/12/04 02:32:27;;;;;;;1.98;1.88;;;;;;;19.29;36.34;101336.16;5038739;28;20039;-71
2023/12/04 02:34:54;;;;;;;2.20;2.00;;;;;;;19.25;36.23;101319.00;5064677;28;20055;-71
2023/12/04 02:37:22;;;;;;;2.00;1.90;;;;;;;19.31;36.33;101320.97;5022744;28;20031;-71
2023/12/04 02:39:49;;;;;;;1.98;1.88;;;;;;;19.47;36.06;101328.09;5078085;28;20062;-71
2023/12/04 02:42:17;;;;;;;2.00;1.90;;;;;;;19.70;35.72;101332.72;5031038;28;20517;-71
2023/12/04 02:44:42;;;;;;;1.95;1.85;;;;;;;19.75;35.66;101315.41;5084738;28;20091;-71
2023/12/04 02:47:08;;;;;;;1.98;1.88;;;;;;;19.67;35.69;101296.91;5018686;28;21581;-71
2023/12/04 02:49:33;;;;;;;1.92;1.83;;;;;;;19.66;35.80;101297.91;5080698;28;20109;-69
2023/12/04 02:51:59;;;;;;;1.73;1.60;;;;;;;19.67;35.89;101304.81;4991453;28;20643;-70
2023/12/04 02:54:24;;;;;;;1.98;1.88;;;;;;;19.61;35.89;101295.75;5084781;28;20031;-70
2023/12/04 02:56:50;;;;;;;2.20;2.00;;;;;;;19.64;35.94;101299.06;5042316;28;20039;-70
2023/12/04 02:59:16;;;;;;;2.08;1.88;;;;;;;19.62;35.74;101296.59;5091727;28;20036;-70
2023/12/04 03:01:41;;;;;;;1.80;1.70;;;;;;;19.52;35.93;101283.50;5029568;28;20701;-71
2023/12/04 03:04:07;;;;;;;1.70;1.60;;;;;;;19.61;35.87;101289.66;5058461;28;20071;-69
2023/12/04 03:06:32;;;;;;;1.95;1.85;;;;;;;19.57;36.02;101285.69;5051463;28;20720;-69
2023/12/04 03:08:59;;;;;;;1.85;1.75;;;;;;;19.49;36.00;101278.56;5062912;28;20055;-69
2023/12/04 03:11:25;;;;;;;1.85;1.75;;;;;;;19.47;36.12;101280.53;5044434;28;20052;-69
2023/12/04 03:13:51;;;;;;;2.22;2.03;;;;;;;19.41;36.18;101269.84;5032903;28;20125;-69
2023/12/04 03:16:19;;;;;;;1.95;1.85;;;;;;;19.46;36.12;101272.78;5087120;28;20063;-69
2023/12/04 03:18:45;;;;;;;1.80;1.70;;;;;;;19.43;36.01;101265.19;5032227;28;20105;-69
2023/12/04 03:21:11;;;;;;;1.90;1.80;;;;;;;19.40;36.19;101257.63;5091052;28;20043;-69
2023/12/04 03:23:36;;;;;;;1.80;1.70;;;;;;;19.42;36.22;101258.28;5027917;28;21721;-69
2023/12/04 03:26:02;;;;;;;2.00;1.80;;;;;;;19.39;36.24;101250.66;5070635;28;20044;-70
2023/12/04 03:28:28;;;;;;;1.88;1.60;;;;;;;19.40;36.29;101266.38;5027025;28;20031;-69
2023/12/04 03:30:53;;;;;;;1.80;1.70;;;;;;;19.41;36.28;101259.25;5086053;28;20514;-70
2023/12/04 03:33:19;;;;;;;1.90;1.80;;;;;;;19.36;36.35;101243.91;5029451;28;20056;-69
2023/12/04 03:35:44;;;;;;;1.67;1.58;;;;;;;19.36;36.28;101243.06;5089325;28;20047;-70
2023/12/04 03:38:10;;;;;;;1.80;1.70;;;;;;;19.38;36.23;101251.66;5029258;28;20430;-70
2023/12/04 03:40:35;;;;;;;1.90;1.80;;;;;;;19.38;36.32;101251.66;5089899;28;20060;-69
2023/12/04 03:43:01;;;;;;;1.67;1.58;;;;;;;19.30;36.31;101242.75;5023178;28;20676;-70
2023/12/04 03:45:27;;;;;;;1.92;1.83;;;;;;;19.30;36.21;101249.84;5062693;28;20036;-69
2023/12/04 03:47:52;;;;;;;1.77;1.67;;;;;;;19.32;36.38;101253.97;5011085;28;20051;-70
2023/12/04 03:50:18;;;;;;;1.73;1.63;;;;;;;19.33;36.28;101247.69;5077583;28;20048;-70
2023/12/04 03:52:43;;;;;;;1.98;1.88;;;;;;;19.31;36.38;101247.03;5029249;28;20044;-70
2023/12/04 03:55:09;;;;;;;1.80;1.70;;;;;;;19.30;36.22;101248.03;5070643;28;20032;-70
2023/12/04 03:57:34;;;;;;;1.75;1.65;;;;;;;19.28;36.35;101239.47;5023917;28;20032;-70
2023/12/04 04:00:00;;;;;;;1.92;1.80;;;;;;;19.28;36.29;101228.06;5088207;28;20757;-70
2023/12/04 04:02:25;;;;;;;1.70;1.60;;;;;;;19.30;36.17;101236.66;4993265;28;20113;-69
2023/12/04 04:04:51;;;;;;;1.75;1.65;;;;;;;19.25;36.26;101228.41;5082344;28;20047;-69
2023/12/04 04:07:17;;;;;;;1.75;1.65;;;;;;;19.23;35.95;101219.84;5050763;28;20052;-70
2023/12/04 04:09:43;;;;;;;1.48;1.38;;;;;;;19.25;36.21;101218.66;5052768;28;20042;-69
2023/12/04 04:12:09;;;;;;;1.70;1.60;;;;;;;19.28;36.28;101228.06;5080833;28;20040;-69
2023/12/04 04:14:35;;;;;;;1.58;1.48;;;;;;;19.17;36.27;101210.75;5039450;28;20509;-69
2023/12/04 04:17:00;;;;;;;2.20;2.00;;;;;;;19.25;36.41;101217.84;5084531;28;20035;-70
2023/12/04 04:19:26;;;;;;;2.20;2.00;;;;;;;19.23;36.18;101225.94;5013008;28;21013;-70
2023/12/04 04:21:52;;;;;;;1.90;1.80;;;;;;;19.22;36.33;101224.28;5083439;28;20032;-69
2023/12/04 04:24:17;;;;;;;1.83;1.73;;;;;;;19.23;36.26;101214.56;5013608;28;20040;-69
2023/12/04 04:26:43;;;;;;;1.73;1.63;;;;;;;19.21;36.33;101217.38;5079686;28;20036;-69
2023/12/04 04:29:09;;;;;;;1.98;1.77;;;;;;;19.17;36.42;101192.25;5014518;28;20044;-69
2023/12/04 04:31:35;;;;;;;1.90;1.80;;;;;;;19.13;36.30;101180.38;5084939;28;20044;-70
2023/12/04 04:34:01;;;;;;;1.60;1.50;;;;;;;19.13;36.52;101193.59;5024062;28;20249;-69
2023/12/04 04:36:26;;;;;;;1.60;1.50;;;;;;;18.98;36.39;101168.84;5081877;28;20111;-69
2023/12/04 04:38:52;;;;;;;1.85;1.75;;;;;;;19.19;36.42;101205.28;5037800;28;20043;-70
2023/12/04 04:41:17;;;;;;;1.67;1.52;;;;;;;19.09;36.38;101183.53;5087849;28;20036;-70
2023/12/04 04:43:43;;;;;;;1.98;1.88;;;;;;;19.23;36.30;101206.63;5034660;28;20410;-69
2023/12/04 04:46:09;;;;;;;1.80;1.70;;;;;;;19.33;36.11;101208.09;5077548;28;20163;-69
2023/12/04 04:48:34;;;;;;;1.85;1.75;;;;;;;19.53;35.80;101194.50;5032699;28;20035;-69
2023/12/04 04:51:00;;;;;;;1.40;1.30;;;;;;;19.57;35.76;101206.44;5082425;28;20039;-69
2023/12/04 04:53:26;;;;;;;1.60;1.50;;;;;;;19.53;35.79;101187.41;5028051;28;20040;-69
2023/12/04 04:55:51;;;;;;;1.70;1.60;;;;;;;19.56;35.84;101189.75;5086526;28;20075;-69
2023/12/04 04:58:17;;;;;;;1.52;1.45;;;;;;;19.56;35.86;101189.75;5035375;28;20035;-69
2023/12/04 05:00:44;;;;;;;1.60;1.50;;;;;;;19.49;35.92;101190.56;5084132;28;20484;-70
2023/12/04 05:03:09;;;;;;;1.55;1.45;;;;;;;19.48;35.93;101176.53;5025535;28;20040;-69
2023/12/04 05:05:35;;;;;;;1.60;1.50;;;;;;;19.46;35.97;101175.06;5072726;28;20095;-70
2023/12/04 05:08:00;;;;;;;1.58;1.48;;;;;;;19.48;35.98;101179.19;5016652;28;20044;-69
2023/12/04 05:10:25;;;;;;;1.70;1.60;;;;;;;19.41;36.00;101161.56;5058603;28;20057;-70
2023/12/04 05:12:51;;;;;;;2.03;1.83;;;;;;;19.43;35.99;101176.22;5085401;28;20491;-70
2023/12/04 05:15:17;;;;;;;1.60;1.50;;;;;;;19.41;36.14;101169.47;5029655;28;20047;-69
2023/12/04 05:17:42;;;;;;;1.70;1.60;;;;;;;19.36;36.09;101158.56;5065309;28;20047;-69
2023/12/04 05:20:08;;;;;;;1.98;1.77;;;;;;;19.38;36.19;101172.44;5028911;28;20044;-69
2023/12/04 05:22:35;;;;;;;1.80;1.70;;;;;;;19.38;36.06;101164.50;5083378;28;20482;-70
2023/12/04 05:25:01;;;;;;;1.45;1.35;;;;;;;19.30;36.19;101149.50;5019946;28;20040;-69
2023/12/04 05:27:26;;;;;;;1.52;1.42;;;;;;;19.26;36.32;101145.56;5082698;28;20051;-70
2023/12/04 05:29:52;;;;;;;1.70;1.60;;;;;;;19.30;36.16;101157.44;5021778;28;20552;-69
2023/12/04 05:32:17;;;;;;;1.58;1.48;;;;;;;19.30;36.22;101152.16;5086128;28;20040;-69
2023/12/04 05:34:43;;;;;;;1.83;1.73;;;;;;;19.31;36.23;101153.81;5022139;28;21420;-69
2023/12/04 05:37:08;;;;;;;1.60;1.50;;;;;;;19.24;36.35;101139.63;5083045;28;20035;-69
2023/12/04 05:39:34;;;;;;;1.63;1.52;;;;;;;19.31;36.34;101151.16;5008815;28;21041;-70
2023/12/04 05:41:59;;;;;;;1.50;1.40;;;;;;;19.22;36.40;101136.34;5081835;28;20031;-69
2023/12/04 05:44:25;;;;;;;1.70;1.60;;;;;;;19.28;36.29;101141.75;5053851;28;20036;-70
2023/12/04 05:46:51;;;;;;;1.90;1.80;;;;;;;19.27;36.40;101147.22;5059964;28;20174;-70
2023/12/04 05:49:16;;;;;;;1.67;1.58;;;;;;;19.27;36.40;101149.84;5068999;28;20523;-70
2023/12/04 05:51:42;;;;;;;1.42;1.30;;;;;;;19.21;36.31;101132.88;5033250;28;20063;-70
2023/12/04 05:54:08;;;;;;;1.42;1.33;;;;;;;19.24;36.35;101151.03;5086631;28;20437;-71
2023/12/04 05:56:34;;;;;;;1.50;1.40;;;;;;;19.25;36.38;101143.91;5028484;28;20032;-70
2023/12/04 05:59:00;;;;;;;1.60;1.50;;;;;;;19.20;36.45;101138.28;5084437;28;20663;-70
2023/12/04 06:01:25;;;;;;;1.10;1.10;;;;;;;19.25;36.31;101144.75;5035550;28;20067;-70
2023/12/04 06:03:51;;;;;;;1.70;1.60;;;;;;;19.25;36.31;101139.47;5083831;28;20086;-70
2023/12/04 06:06:16;;;;;;;1.70;1.60;;;;;;;19.18;36.26;101121.81;5034408;28;20043;-70
2023/12/04 06:08:42;;;;;;;2.03;1.30;;;;;;;19.23;36.39;101132.72;5085815;28;20236;-70
2023/12/04 06:11:07;;;;;;;1.60;1.50;;;;;;;19.22;36.31;101128.41;5029498;28;20029;-70
2023/12/04 06:13:33;;;;;;;1.42;1.33;;;;;;;19.23;36.57;101127.44;5090027;28;20141;-70
2023/12/04 06:15:58;;;;;;;1.80;1.70;;;;;;;19.23;36.32;101127.44;5029802;28;20495;-70
2023/12/04 06:18:24;;;;;;;1.50;1.40;;;;;;;19.22;36.34;101120.50;5057358;28;20047;-70
2023/12/04 06:20:49;;;;;;;1.70;1.60;;;;;;;19.17;36.33;101114.88;5077089;28;20047;-70
2023/12/04 06:23:15;;;;;;;1.48;1.38;;;;;;;19.15;36.52;101119.50;5027658;28;20762;-70
2023/12/04 06:25:41;;;;;;;1.75;1.65;;;;;;;19.18;36.58;101106.78;5081830;28;20596;-69
2023/12/04 06:28:07;;;;;;;1.40;1.30;;;;;;;19.18;36.48;101106.78;5030295;28;20093;-70
2023/12/04 06:30:33;;;;;;;1.58;1.48;;;;;;;19.19;36.49;101108.44;5069589;28;20056;-70
2023/12/04 06:32:59;;;;;;;1.50;1.40;;;;;;;19.18;36.52;101098.03;5032819;28;21152;-70
2023/12/04 06:35:25;;;;;;;1.77;1.67;;;;;;;19.18;36.33;101104.16;5070854;28;20040;-70
2023/12/04 06:37:53;;;;;;;1.42;1.33;;;;;;;19.18;36.48;101098.03;5025664;28;20032;-70
2023/12/04 06:40:19;;;;;;;1.50;1.40;;;;;;;19.19;36.48;101099.69;5064510;28;20063;-70
2023/12/04 06:42:45;;;;;;;1.58;1.48;;;;;;;19.10;36.61;101090.97;5042089;28;20082;-70
2023/12/04 06:45:11;;;;;;;1.55;1.45;;;;;;;19.15;36.42;101098.38;5061314;28;20139;-70
2023/12/04 06:47:40;;;;;;;1.65;1.55;;;;;;;19.16;36.57;101092.13;5066860;28;20037;-70
2023/12/04 06:50:05;;;;;;;1.70;1.60;;;;;;;19.14;36.52;101091.47;5045895;28;20047;-69
2023/12/04 06:52:31;;;;;;;1.70;1.60;;;;;;;19.12;36.48;101083.72;5089639;28;20042;-70
2023/12/04 06:54:56;;;;;;;1.90;1.80;;;;;;;19.14;36.52;101088.81;5014706;28;20815;-69
2023/12/04 06:57:22;;;;;;;1.88;1.67;;;;;;;19.13;36.53;101089.81;5087155;28;20039;-69
2023/12/04 06:59:48;;;;;;;1.80;1.70;;;;;;;19.06;36.48;101080.94;5028182;28;20141;-70
2023/12/04 07:02:13;;;;;;;1.58;1.48;;;;;;;19.09;36.53;101078.78;5069772;28;20040;-69
2023/12/04 07:04:39;;;;;;;1.60;1.50;;;;;;;19.15;36.35;101083.38;5034213;28;20028;-70
2023/12/04 07:07:05;;;;;;;1.45;1.35;;;;;;;19.22;36.34;101080.91;5080860;28;20374;-70
2023/12/04 07:09:32;;;;;;;1.63;1.52;;;;;;;19.27;36.36;101076.75;5029237;28;20036;-70
2023/12/04 07:11:58;;;;;;;1.42;1.33;;;;;;;19.43;36.09;101075.88;5068823;28;20098;-70
2023/12/04 07:14:23;;;;;;;1.65;1.55;;;;;;;19.80;35.46;101069.13;5040593;28;20086;-70
2023/12/04 07:16:49;;;;;;;1.35;1.27;;;;;;;20.18;34.78;101057.66;5086317;28;20028;-70
2023/12/04 07:19:16;;;;;;;1.52;1.42;;;;;;;20.75;34.02;101041.31;5011126;28;20040;-70
2023/12/04 07:21:41;;;;;;;1.58;1.48;;;;;;;21.10;33.33;101039.78;5088566;28;20048;-70
2023/12/04 07:24:07;;;;;;;1.70;1.60;;;;;;;21.34;33.18;101053.78;5081875;28;20037;-70
2023/12/04 07:26:35;;;;;;;1.55;1.45;;;;;;;21.18;33.11;101054.75;5038221;28;20115;-71
2023/12/04 07:29:01;;;;;;;1.60;1.50;;;;;;;20.92;33.79;101047.28;5081751;28;20105;-71
2023/12/04 07:31:27;;;;;;;1.27;1.27;;;;;;;20.81;33.96;101043.22;5032826;28;20039;-71
2023/12/04 07:33:55;;;;;;;1.20;1.20;;;;;;;20.69;34.21;101047.34;5085742;28;20105;-72
2023/12/04 07:36:21;;;;;;;1.52;1.42;;;;;;;20.55;34.65;101044.66;5027897;28;20058;-72
2023/12/04 07:38:47;;;;;;;1.70;1.60;;;;;;;20.45;34.66;101040.44;5085515;28;20028;-72
2023/12/04 07:41:15;;;;;;;1.27;1.17;;;;;;;20.37;34.98;101037.00;5030619;28;20043;-71
2023/12/04 07:43:40;;;;;;;1.48;1.38;;;;;;;20.15;35.01;101012.25;5081518;28;20040;-71
2023/12/04 07:46:06;;;;;;;1.63;1.52;;;;;;;20.29;35.12;101037.91;5010155;28;20071;-72
2023/12/04 07:48:31;;;;;;;1.67;1.58;;;;;;;20.21;35.17;101027.38;5080533;28;20136;-72
2023/12/04 07:50:57;;;;;;;1.30;1.20;;;;;;;20.10;35.32;101023.31;5033114;28;20486;-71
2023/12/04 07:53:22;;;;;;;1.42;1.33;;;;;;;20.12;35.32;101026.63;5080736;28;20050;-71
2023/12/04 07:55:50;;;;;;;1.40;1.30;;;;;;;19.99;35.37;101018.47;5035221;28;20081;-71
2023/12/04 07:58:17;;;;;;;1.23;1.13;;;;;;;20.04;35.43;101033.78;5079541;28;20069;-71
2023/12/04 08:00:43;;;;;;;2.38;1.50;;;;;;;19.99;35.52;101039.63;5012771;28;20042;-71
2023/12/04 08:03:09;;;;;;;1.33;1.30;;;;;;;19.94;35.55;101034.03;5086327;28;20115;-71
2023/12/04 08:05:35;;;;;;;1.30;1.20;;;;;;;19.94;35.63;101033.22;5028076;28;20048;-71
2023/12/04 08:08:00;;;;;;;1.52;1.42;;;;;;;19.84;35.51;101028.97;5067243;28;20075;-71
2023/12/04 08:10:26;;;;;;;1.08;1.08;;;;;;;20.00;35.44;101028.03;5032252;28;20039;-71
2023/12/04 08:12:51;;;;;;;1.30;1.30;;;;;;;20.01;35.32;101013.00;5081690;28;20055;-71
2023/12/04 08:15:17;;;;;;;1.15;1.15;;;;;;;20.10;35.54;101023.31;5034472;28;20039;-71
2023/12/04 08:17:42;;;;;;;1.30;1.20;;;;;;;20.08;35.25;101021.84;5082864;28;20055;-71
2023/12/04 08:20:13;;;;;;;1.60;1.50;;;;;;;20.00;35.37;101011.34;5029137;28;20490;-71
2023/12/04 08:22:43;;;;;;;1.30;1.20;;;;;;;20.11;35.30;101010.97;5081856;28;20036;-71
2023/12/04 08:25:09;;;;;;;1.55;1.45;;;;;;;20.04;35.32;101002.88;5064104;28;20036;-70
2023/12/04 08:27:35;;;;;;;1.33;1.23;;;;;;;20.07;35.36;101015.75;5093439;28;20166;-70
2023/12/04 08:30:00;;;;;;;1.20;1.20;;;;;;;20.06;35.62;101015.94;5032210;28;20505;-70
2023/12/04 08:32:27;;;;;;;1.55;1.40;;;;;;;20.00;35.90;101006.06;5088616;28;20036;-70
2023/12/04 08:34:53;;;;;;;1.45;1.35;;;;;;;19.98;35.57;101016.00;5029776;28;20050;-69
2023/12/04 08:37:19;;;;;;;1.60;1.50;;;;;;;19.87;35.47;100994.25;5081268;28;20028;-68
2023/12/04 08:39:45;;;;;;;1.35;1.25;;;;;;;19.82;35.69;100998.44;5027272;28;20077;-68
2023/12/04 08:42:12;;;;;;;1.33;1.23;;;;;;;19.83;35.77;100998.25;5078350;28;20732;-69
2023/12/04 08:44:37;;;;;;;1.60;1.50;;;;;;;19.87;35.61;100988.16;5032162;28;20101;-70
2023/12/04 08:47:03;;;;;;;1.60;1.50;;;;;;;20.15;35.20;100999.03;5084679;28;20507;-69
2023/12/04 08:49:29;;;;;;;1.23;1.13;;;;;;;20.46;34.75;101002.41;5025843;28;20103;-69
2023/12/04 08:51:54;;;;;;;1.50;1.40;;;;;;;20.41;34.36;100969.56;5079291;28;20077;-69
2023/12/04 08:54:20;;;;;;;1.48;1.38;;;;;;;20.55;34.55;101000.50;5024962;28;20043;-69
2023/12/04 08:56:45;;;;;;;1.50;1.40;;;;;;;20.48;34.60;100997.78;5083728;28;20495;-69
2023/12/04 08:59:12;;;;;;;1.60;1.50;;;;;;;20.41;34.64;100988.91;5031976;28;20795;-69
2023/12/04 09:01:38;;;;;;;1.30;1.20;;;;;;;20.35;34.86;100999.34;5060033;28;20112;-69
2023/12/04 09:04:04;;;;;;;1.33;1.23;;;;;;;20.25;35.24;100983.72;5028662;28;20117;-69
2023/12/04 09:06:30;;;;;;;1.60;1.50;;;;;;;20.24;35.01;100997.94;5060480;28;20035;-69
2023/12/04 09:08:55;;;;;;;1.73;1.63;;;;;;;20.21;35.10;100991.19;5039098;28;20044;-69
2023/12/04 09:11:21;;;;;;;1.50;1.40;;;;;;;20.19;35.12;101000.31;5080583;28;20039;-69
2023/12/04 09:13:47;;;;;;;1.35;1.25;;;;;;;20.14;35.18;100992.09;5055498;28;20097;-70
2023/12/04 09:16:13;;;;;;;1.20;1.20;;;;;;;20.13;35.30;100993.91;5057924;28;20453;-69
2023/12/04 09:18:39;;;;;;;1.00;1.00;;;;;;;20.08;35.17;100987.50;5079570;28;20359;-69
2023/12/04 09:21:05;;;;;;;1.45;1.35;;;;;;;20.01;35.37;100981.28;5029360;28;20033;-69
2023/12/04 09:23:30;;;;;;;1.13;1.13;;;;;;;19.97;35.42;100980.81;5085728;28;20064;-70
2023/12/04 09:25:56;;;;;;;1.42;1.33;;;;;;;19.91;35.78;100977.03;5024749;28;20047;-69
2023/12/04 09:28:21;;;;;;;1.38;1.27;;;;;;;19.88;35.52;100974.75;5085579;28;20044;-70
2023/12/04 09:30:47;;;;;;;1.60;1.25;;;;;;;19.86;35.61;100970.66;5032152;28;20061;-70
2023/12/04 09:33:12;;;;;;;1.45;1.35;;;;;;;19.87;35.57;100974.94;5062289;28;20457;-69
2023/12/04 09:35:38;;;;;;;1.35;1.25;;;;;;;19.85;35.64;100982.22;5084411;28;20044;-69
2023/12/04 09:38:03;;;;;;;1.58;1.40;;;;;;;19.81;35.69;100983.56;5025905;28;20812;-68
2023/12/04 09:40:29;;;;;;;1.73;1.40;;;;;;;19.81;35.70;100984.41;5082750;28;20048;-70
2023/12/04 09:42:56;;;;;;;1.10;1.10;;;;;;;19.82;35.46;100964.91;5032070;28;20057;-70
2023/12/04 09:45:24;;;;;;;1.10;1.10;;;;;;;20.18;34.96;100972.22;5067467;28;20380;-69
2023/12/04 09:47:50;;;;;;;1.67;1.58;;;;;;;20.49;34.27;100970.31;5026521;28;20559;-69
2023/12/04 09:50:20;;;;;;;1.00;1.00;;;;;;;20.82;33.68;100980.53;5083772;28;20146;-69
2023/12/04 09:52:49;;;;;;;1.30;1.20;;;;;;;20.94;33.87;100972.97;5022343;28;20067;-70
2023/12/04 09:55:15;;;;;;;1.42;1.33;;;;;;;20.82;33.95;100969.94;5075823;28;20040;-70
2023/12/04 09:57:43;;;;;;;1.20;1.10;;;;;;;20.68;34.19;100961.03;5051846;28;20035;-69
2023/12/04 10:00:10;;;;;;;1.20;1.20;;;;;;;20.71;34.01;100967.78;5053328;28;20119;-69
2023/12/04 10:02:40;;;;;;;1.08;1.08;;;;;;;20.44;34.38;100943.56;5052542;28;20032;-70
2023/12/04 10:05:09;;;;;;;1.02;1.02;;;;;;;20.51;34.39;100956.91;5053538;28;20124;-69
2023/12/04 10:07:36;;;;;;;1.40;1.30;;;;;;;20.50;34.59;100969.31;5065005;28;20154;-68
2023/12/04 10:10:05;;;;;;;1.20;1.20;;;;;;;20.48;34.66;100963.38;5053743;28;20036;-69
2023/12/04 10:12:33;;;;;;;1.15;1.15;;;;;;;20.39;34.69;100953.03;5069609;28;20127;-69
2023/12/04 10:15:08;;;;;;;1.27;1.20;;;;;;;20.38;34.81;100962.78;5042713;28;20032;-69
2023/12/04 10:17:38;;;;;;;1.50;1.40;;;;;;;20.38;34.80;100965.41;5061309;28;20420;-69
2023/12/04 10:20:19;;;;;;;1.30;1.20;;;;;;;20.29;34.92;100953.28;5053847;28;20132;-69
2023/12/04 10:22:59;;;;;;;1.20;1.20;;;;;;;20.15;34.98;100946.97;5042611;28;20028;-69
2023/12/04 10:25:28;;;;;;;1.38;1.27;;;;;;;20.20;35.02;100959.63;5059273;28;20040;-69
2023/12/04 10:27:54;;;;;;;1.50;1.40;;;;;;;20.18;35.09;100951.06;5023963;28;20717;-69
2023/12/04 10:30:23;;;;;;;1.33;1.23;;;;;;;20.13;35.06;100943.69;5086414;28;20096;-69
2023/12/04 10:32:49;;;;;;;1.45;1.35;;;;;;;20.13;35.13;100954.25;5010594;28;20630;-69
2023/12/04 10:35:15;;;;;;;1.27;1.17;;;;;;;20.10;35.32;100943.19;5057878;28;20036;-69
2023/12/04 10:37:41;;;;;;;1.30;1.20;;;;;;;19.98;35.37;100926.13;5068319;28;20057;-69
2023/12/04 10:40:08;;;;;;;1.30;1.20;;;;;;;20.00;35.39;100932.88;5088388;28;20059;-69
2023/12/04 10:42:34;;;;;;;1.40;1.30;;;;;;;19.97;35.11;100919.22;5024300;28;20060;-69
2023/12/04 10:45:00;;;;;;;1.42;1.33;;;;;;;19.93;35.34;100913.47;5063241;28;20028;-69
2023/12/04 10:47:33;;;;;;;1.35;1.30;;;;;;;19.95;35.46;100911.47;5011566;28;20044;-69
2023/12/04 10:49:59;;;;;;;1.48;1.38;;;;;;;20.00;35.25;100911.72;5057264;28;20476;-69
2023/12/04 10:52:24;;;;;;;1.38;1.30;;;;;;;20.04;35.18;100915.66;5030754;28;20032;-69
2023/12/04 10:54:50;;;;;;;1.27;1.17;;;;;;;19.96;35.25;100896.41;5078832;28;20468;-69
2023/12/04 10:57:22;;;;;;;1.25;1.25;;;;;;;20.00;35.28;100902.97;5037843;28;20023;-69
2023/12/04 10:59:51;;;;;;;1.40;1.30;;;;;;;20.02;35.35;100909.72;5076045;28;20031;-69
2023/12/04 11:02:21;;;;;;;1.40;1.30;;;;;;;20.04;35.26;100898.97;5013957;28;20051;-70
2023/12/04 11:04:52;;;;;;;1.00;1.00;;;;;;;20.08;35.08;100903.72;5082422;28;20067;-70
2023/12/04 11:07:19;;;;;;;1.25;1.15;;;;;;;20.15;34.96;100902.00;5021829;28;20044;-69
2023/12/04 11:09:48;;;;;;;1.05;1.05;;;;;;;20.18;34.89;100896.38;5076292;28;20051;-69
2023/12/04 11:12:20;;;;;;;1.50;1.40;;;;;;;20.20;34.91;100889.06;5013954;28;20460;-69
2023/12/04 11:14:53;;;;;;;1.25;1.15;;;;;;;20.19;34.93;100883.97;5078550;28;20548;-69
2023/12/04 11:17:19;;;;;;;1.02;1.00;;;;;;;20.17;34.98;100878.84;5032479;28;20464;-69
2023/12/04 11:19:59;;;;;;;1.00;1.00;;;;;;;20.16;34.96;100871.09;5078532;28;20582;-69